Time;durP1;ratioP1;P1;durP2;ratioP2;P2;SDS_P1;SDS_P2;PMS_P1;PMS_P2;Temp;Humidity;BMP_temperature;BMP_pressure;BME280_temperature;BME280_humidity;BME280_pressure;Samples;Min_cycle;Max_cycle;Signal;HPM_P1;HPM_P2
2022/02/06 00:04:09;;;;;;;8.73;0.93;;;8.20;99.90;;;;;;20773355;28;20057;-47
2022/02/06 00:14:10;;;;;;;7.50;1.33;;;8.20;99.90;;;;;;20783379;28;20052;-47
2022/02/06 00:24:17;;;;;;;6.28;0.55;;;8.30;99.90;;;;;;20796990;28;20296;-46
2022/02/06 00:44:39;;;;;;;4.25;0.68;;;8.30;99.90;;;;;;20760945;28;20069;-48
2022/02/06 00:54:40;;;;;;;3.95;0.82;;;8.30;99.90;;;;;;20771958;28;20087;-48
2022/02/06 01:04:41;;;;;;;6.45;1.30;;;8.40;99.90;;;;;;20775981;28;20044;-48
2022/02/06 01:15:04;;;;;;;4.55;1.35;;;8.40;99.90;;;;;;20776432;28;20132;-48
2022/02/06 01:35:12;;;;;;;3.38;1.13;;;8.50;99.90;;;;;;20788768;28;20053;-47
2022/02/06 02:06:13;;;;;;;13.32;1.10;;;8.60;99.90;;;;;;20788843;28;20053;-47
2022/02/06 02:47:19;;;;;;;5.38;1.08;;;8.70;99.90;;;;;;20782234;28;20045;-47
2022/02/06 02:57:28;;;;;;;6.50;2.35;;;8.60;99.90;;;;;;20788041;28;20261;-47
2022/02/06 03:07:29;;;;;;;6.15;1.60;;;8.60;99.90;;;;;;20781642;28;20461;-47
2022/02/06 03:17:39;;;;;;;17.77;1.48;;;8.70;99.90;;;;;;20782312;28;20507;-47
2022/02/06 03:27:39;;;;;;;4.53;1.17;;;8.70;99.90;;;;;;20802184;28;20053;-47
2022/02/06 03:37:41;;;;;;;11.57;2.90;;;8.70;99.90;;;;;;21458685;22;20061;-44
2022/02/06 03:48:11;;;;;;;4.47;1.08;;;8.60;99.90;;;;;;20874868;28;20446;-47
2022/02/06 03:58:05;;;;;;;16.70;2.90;;;8.70;99.90;;;;;;20860936;28;20035;-47
2022/02/06 04:08:07;;;;;;;5.30;1.23;;;8.70;99.90;;;;;;20837561;28;20045;-47
2022/02/06 04:18:14;;;;;;;5.53;1.25;;;8.90;99.90;;;;;;20856629;28;20048;-49
2022/02/06 04:28:14;;;;;;;11.60;2.13;;;8.90;99.90;;;;;;20859686;28;20134;-48
2022/02/06 05:30:05;;;;;;;9.55;2.05;;;9.30;99.90;;;;;;20785242;28;20046;-45
2022/02/06 05:40:06;;;;;;;9.43;0.93;;;9.30;99.90;;;;;;20785966;28;20413;-45
2022/02/06 05:50:08;;;;;;;6.78;1.38;;;9.40;99.90;;;;;;20791364;28;20525;-44
2022/02/06 06:00:10;;;;;;;10.27;1.90;;;9.40;99.90;;;;;;20787081;28;20147;-45
2022/02/06 06:10:12;;;;;;;8.75;1.02;;;9.40;99.90;;;;;;20771038;28;20401;-45
2022/02/06 06:20:17;;;;;;;6.53;1.00;;;9.20;99.90;;;;;;20764355;28;20547;-44
2022/02/06 06:30:17;;;;;;;6.95;0.88;;;9.10;99.90;;;;;;20799093;28;20502;-44
2022/02/06 06:40:19;;;;;;;15.95;1.55;;;9.10;99.90;;;;;;20788519;28;20063;-45
2022/02/06 06:50:20;;;;;;;16.73;1.50;;;9.20;99.90;;;;;;20799304;28;20046;-45
2022/02/06 07:00:37;;;;;;;12.95;1.17;;;9.20;99.90;;;;;;20821565;28;20042;-45
2022/02/06 07:10:38;;;;;;;16.33;2.20;;;9.30;99.90;;;;;;20789435;28;20049;-46
2022/02/06 07:20:39;;;;;;;8.63;1.00;;;9.30;99.90;;;;;;20789492;28;20048;-45
2022/02/06 07:30:40;;;;;;;9.48;1.08;;;9.20;99.90;;;;;;20786087;28;20070;-45
2022/02/06 07:40:41;;;;;;;3.90;1.00;;;9.20;99.90;;;;;;20797539;28;20046;-45
2022/02/06 07:50:43;;;;;;;7.60;1.42;;;9.10;99.90;;;;;;20800428;28;20574;-44
2022/02/06 08:00:44;;;;;;;13.35;1.30;;;9.10;99.90;;;;;;20796833;28;20444;-45
2022/02/06 08:10:45;;;;;;;7.37;1.07;;;9.10;99.90;;;;;;20807206;28;20112;-44
2022/02/06 08:20:46;;;;;;;7.50;1.30;;;9.00;99.90;;;;;;20801837;28;20284;-44
2022/02/06 08:30:46;;;;;;;13.07;3.33;;;9.10;99.90;;;;;;20769041;28;20389;-45
2022/02/06 08:40:47;;;;;;;6.57;0.90;;;9.00;99.90;;;;;;20794054;28;20641;-45
2022/02/06 08:50:47;;;;;;;9.93;2.57;;;8.90;99.90;;;;;;20805619;28;20069;-46
2022/02/06 09:00:50;;;;;;;6.10;1.67;;;8.90;99.90;;;;;;20776738;28;20333;-47
2022/02/06 09:10:51;;;;;;;6.82;0.80;;;9.00;99.90;;;;;;20794891;28;20053;-46
2022/02/06 09:20:52;;;;;;;8.90;1.38;;;8.90;99.90;;;;;;20772080;28;20378;-47
2022/02/06 09:30:53;;;;;;;3.90;0.70;;;8.90;99.90;;;;;;20810151;28;20050;-47
2022/02/06 09:40:54;;;;;;;7.70;0.98;;;8.90;99.90;;;;;;20779993;28;20488;-48
2022/02/06 09:50:55;;;;;;;3.58;1.08;;;8.90;99.90;;;;;;20787160;28;20496;-48
2022/02/06 10:00:56;;;;;;;6.18;0.65;;;9.00;99.90;;;;;;20772289;28;20274;-50
2022/02/06 10:11:11;;;;;;;5.13;0.80;;;8.90;99.90;;;;;;20785689;28;20538;-52
2022/02/06 10:21:16;;;;;;;6.88;0.80;;;9.00;99.90;;;;;;20778139;28;20100;-52
2022/02/06 10:31:20;;;;;;;4.85;0.65;;;9.00;99.90;;;;;;20772226;28;20053;-52
2022/02/06 10:41:24;;;;;;;4.68;0.90;;;9.00;99.90;;;;;;20743881;28;20133;-50
2022/02/06 10:51:51;;;;;;;1.77;0.50;;;9.10;99.90;;;;;;20785662;28;20374;-49
2022/02/06 11:01:53;;;;;;;7.38;0.68;;;9.20;99.90;;;;;;20804369;28;20151;-50
2022/02/06 11:11:58;;;;;;;0.43;0.10;;;9.10;99.90;;;;;;20782390;28;20049;-49
2022/02/06 11:22:10;;;;;;;2.78;0.25;;;8.30;99.90;;;;;;20769752;28;20104;-53
2022/02/06 11:32:13;;;;;;;2.92;0.20;;;6.80;99.90;;;;;;20773738;28;20050;-50
2022/02/06 11:52:57;;;;;;;0.68;0.25;;;6.20;99.90;;;;;;20813330;28;20618;-50
2022/02/06 12:03:12;;;;;;;2.38;0.13;;;6.20;99.90;;;;;;20780105;28;20038;-49
2022/02/06 12:13:22;;;;;;;0.93;0.28;;;6.50;99.90;;;;;;20795161;28;20106;-49
2022/02/06 12:23:46;;;;;;;4.88;0.40;;;6.90;99.90;;;;;;20791935;28;20052;-46
2022/02/06 12:44:08;;;;;;;1.05;0.52;;;7.30;99.90;;;;;;20793723;28;20479;-46
2022/02/06 12:54:12;;;;;;;3.03;0.40;;;7.50;99.90;;;;;;20786233;28;20041;-46
2022/02/06 13:04:16;;;;;;;1.50;0.20;;;7.60;99.90;;;;;;20809963;28;20124;-46
2022/02/06 13:14:31;;;;;;;3.15;0.30;;;7.80;99.90;;;;;;20768339;28;20046;-46
2022/02/06 13:35:58;;;;;;;3.58;0.30;;;8.10;99.90;;;;;;20803510;28;20071;-46
2022/02/06 13:45:28;;;;;;;1.30;0.30;;;8.20;99.90;;;;;;20799439;28;20257;-48
2022/02/06 13:55:28;;;;;;;10.63;0.98;;;8.30;99.90;;;;;;20800814;28;20145;-46
2022/02/06 14:05:31;;;;;;;2.97;0.30;;;8.20;99.90;;;;;;20792320;28;20098;-46
2022/02/06 14:15:32;;;;;;;0.98;0.32;;;8.30;99.90;;;;;;20775240;28;20409;-46
2022/02/06 14:25:35;;;;;;;1.77;0.50;;;9.00;99.90;;;;;;20737637;28;20464;-45
2022/02/06 14:36:04;;;;;;;4.53;0.82;;;9.20;99.90;;;;;;20780554;28;20512;-46
2022/02/06 14:46:07;;;;;;;0.82;0.30;;;9.50;99.90;;;;;;20804144;28;20096;-45
2022/02/06 14:56:09;;;;;;;2.05;0.10;;;9.40;99.90;;;;;;20793175;28;20054;-45
2022/02/06 15:06:10;;;;;;;2.10;0.75;;;9.10;99.90;;;;;;20795674;28;20093;-45
2022/02/06 15:16:18;;;;;;;1.20;0.15;;;9.00;99.90;;;;;;20806727;28;20056;-45
2022/02/06 15:26:19;;;;;;;1.30;0.50;;;8.60;99.90;;;;;;20788029;28;20132;-45
2022/02/06 15:36:20;;;;;;;6.30;0.63;;;8.60;99.90;;;;;;20835068;28;20041;-45
2022/02/06 15:46:21;;;;;;;2.60;0.95;;;8.50;99.90;;;;;;20807633;28;20044;-45
2022/02/06 15:56:23;;;;;;;1.40;0.63;;;8.30;99.90;;;;;;20777000;28;20143;-45
2022/02/06 16:06:24;;;;;;;2.17;0.47;;;8.20;99.90;;;;;;20782877;28;20041;-45
2022/02/06 16:16:27;;;;;;;2.60;0.85;;;8.20;99.90;;;;;;20789939;28;20291;-45
2022/02/06 16:26:29;;;;;;;1.67;0.60;;;8.20;99.90;;;;;;20790988;28;20028;-45
2022/02/06 16:36:30;;;;;;;1.60;0.68;;;7.90;99.90;;;;;;20796885;28;20056;-45
2022/02/06 16:46:31;;;;;;;0.80;0.30;;;7.50;99.90;;;;;;20810769;28;20071;-45
2022/02/06 16:56:32;;;;;;;2.53;0.90;;;6.50;99.90;;;;;;20803148;28;20046;-45
2022/02/06 17:06:33;;;;;;;1.65;0.52;;;6.10;99.90;;;;;;20841029;28;20040;-45
2022/02/06 17:16:33;;;;;;;4.50;0.43;;;6.10;99.90;;;;;;20828866;28;20120;-45
2022/02/06 17:26:35;;;;;;;1.52;0.47;;;6.10;99.90;;;;;;20836286;28;20128;-44
2022/02/06 17:36:35;;;;;;;4.35;0.38;;;6.30;99.90;;;;;;20829166;28;20311;-44
2022/02/06 17:46:36;;;;;;;1.27;0.57;;;6.20;99.90;;;;;;20855441;28;20090;-47
2022/02/06 17:56:37;;;;;;;2.55;0.90;;;5.50;99.90;;;;;;20839483;28;20493;-45
2022/02/06 18:06:38;;;;;;;3.45;1.33;;;5.20;99.90;;;;;;20828916;28;20044;-45
2022/02/06 18:16:39;;;;;;;4.10;1.10;;;5.10;99.90;;;;;;20822715;28;20504;-47
2022/02/06 18:26:39;;;;;;;6.10;0.73;;;5.20;99.90;;;;;;20814899;28;20093;-47
2022/02/06 18:36:40;;;;;;;1.43;0.70;;;5.50;99.90;;;;;;20814586;28;20706;-46
2022/02/06 18:46:41;;;;;;;3.13;0.40;;;5.50;99.90;;;;;;20840178;28;20292;-46
2022/02/06 18:56:41;;;;;;;2.22;0.75;;;5.50;99.90;;;;;;21234821;22;20048;-47
2022/02/06 19:06:43;;;;;;;1.15;0.45;;;5.70;99.90;;;;;;20887204;28;20488;-44
2022/02/06 19:16:44;;;;;;;3.08;1.17;;;5.70;99.90;;;;;;20866205;28;20411;-44
2022/02/06 19:26:45;;;;;;;2.95;0.88;;;5.50;99.90;;;;;;20862688;28;20396;-44
2022/02/06 19:36:46;;;;;;;2.00;1.27;;;5.40;99.90;;;;;;20868007;28;20052;-44
2022/02/06 19:46:49;;;;;;;2.67;0.80;;;5.40;99.90;;;;;;20854613;28;20037;-46
2022/02/06 19:56:59;;;;;;;8.23;1.42;;;5.60;99.90;;;;;;20878017;28;20516;-45
2022/02/06 20:06:59;;;;;;;1.92;0.70;;;5.70;99.90;;;;;;20855748;28;20038;-45
2022/02/06 20:17:00;;;;;;;3.05;0.75;;;5.70;99.90;;;;;;20844259;28;20053;-45
2022/02/06 20:27:01;;;;;;;7.30;0.83;;;5.80;99.90;;;;;;20871937;28;20029;-45
2022/02/06 20:37:03;;;;;;;4.47;0.82;;;5.90;99.90;;;;;;20868726;28;20341;-45
2022/02/06 20:47:09;;;;;;;9.88;1.77;;;5.80;99.90;;;;;;20876912;28;20771;-45
2022/02/06 20:57:10;;;;;;;9.23;0.93;;;5.80;99.90;;;;;;20867208;28;20059;-45
2022/02/06 21:07:11;;;;;;;1.00;0.45;;;5.80;99.90;;;;;;20866879;28;20041;-45
2022/02/06 21:17:11;;;;;;;3.00;0.98;;;5.90;99.90;;;;;;20875750;28;20503;-45
2022/02/06 21:27:12;;;;;;;2.50;0.80;;;6.00;99.90;;;;;;20888742;28;20027;-45
2022/02/06 21:37:13;;;;;;;4.85;0.60;;;6.10;99.90;;;;;;20865804;28;20214;-45
2022/02/06 21:47:14;;;;;;;7.03;0.85;;;6.10;99.90;;;;;;20875521;28;20062;-45
2022/02/06 21:57:16;;;;;;;1.42;0.52;;;6.00;99.90;;;;;;20879236;28;20098;-45
2022/02/06 22:07:29;;;;;;;5.40;0.40;;;5.90;99.90;;;;;;20856830;28;20049;-45
2022/02/06 22:38:11;;;;;;;4.05;0.30;;;5.50;99.90;;;;;;20839886;28;20246;-45
2022/02/06 22:48:12;;;;;;;2.47;0.50;;;5.60;99.90;;;;;;20843377;28;20048;-45
2022/02/06 22:58:13;;;;;;;4.43;0.70;;;5.40;99.90;;;;;;20842291;28;20053;-45
2022/02/06 23:08:14;;;;;;;3.80;1.10;;;5.50;99.90;;;;;;20815861;28;20283;-45
2022/02/06 23:18:15;;;;;;;4.60;0.85;;;5.40;99.90;;;;;;20832607;28;20046;-45
2022/02/06 23:28:16;;;;;;;3.25;0.50;;;5.60;99.90;;;;;;20843947;28;20052;-45
2022/02/06 23:38:18;;;;;;;7.93;0.65;;;5.70;99.90;;;;;;20848459;28;20684;-45
2022/02/06 23:48:22;;;;;;;2.53;0.85;;;5.80;99.90;;;;;;20847449;28;20065;-45
2022/02/06 23:58:38;;;;;;;0.55;0.25;;;5.80;99.90;;;;;;20845631;28;20432;-45
